sensor_id;sensor_type;location;lat;lon;timestamp;P1;durP1;ratioP1;P2;durP2;ratioP2
76863;SDS011;65834;52.364;9.754;2023-07-31T00:01:54;7.03;;;2.30;;
76863;SDS011;65834;52.364;9.754;2023-07-31T00:04:24;6.85;;;2.08;;
76863;SDS011;65834;52.364;9.754;2023-07-31T00:06:56;4.25;;;1.67;;
76863;SDS011;65834;52.364;9.754;2023-07-31T00:09:26;5.65;;;2.22;;
76863;SDS011;65834;52.364;9.754;2023-07-31T00:11:55;5.00;;;1.75;;
76863;SDS011;65834;52.364;9.754;2023-07-31T00:14:28;5.57;;;1.90;;
76863;SDS011;65834;52.364;9.754;2023-07-31T00:16:57;5.13;;;1.75;;
76863;SDS011;65834;52.364;9.754;2023-07-31T00:19:27;7.25;;;1.90;;
76863;SDS011;65834;52.364;9.754;2023-07-31T00:21:56;5.40;;;2.00;;
76863;SDS011;65834;52.364;9.754;2023-07-31T00:24:28;5.68;;;1.92;;
76863;SDS011;65834;52.364;9.754;2023-07-31T00:26:58;7.47;;;1.92;;
76863;SDS011;65834;52.364;9.754;2023-07-31T00:29:32;5.70;;;1.90;;
76863;SDS011;65834;52.364;9.754;2023-07-31T00:32:08;6.78;;;1.88;;
76863;SDS011;65834;52.364;9.754;2023-07-31T00:34:37;6.63;;;1.95;;
76863;SDS011;65834;52.364;9.754;2023-07-31T00:37:07;6.18;;;2.45;;
76863;SDS011;65834;52.364;9.754;2023-07-31T00:39:37;6.65;;;2.40;;
76863;SDS011;65834;52.364;9.754;2023-07-31T00:42:06;6.93;;;2.42;;
76863;SDS011;65834;52.364;9.754;2023-07-31T00:44:38;6.72;;;2.13;;
76863;SDS011;65834;52.364;9.754;2023-07-31T00:47:08;4.95;;;1.63;;
76863;SDS011;65834;52.364;9.754;2023-07-31T00:49:38;9.35;;;2.45;;
76863;SDS011;65834;52.364;9.754;2023-07-31T00:52:08;6.22;;;1.85;;
76863;SDS011;65834;52.364;9.754;2023-07-31T00:54:39;6.35;;;2.28;;
76863;SDS011;65834;52.364;9.754;2023-07-31T00:57:08;6.60;;;2.15;;
76863;SDS011;65834;52.364;9.754;2023-07-31T00:59:41;5.13;;;1.70;;
76863;SDS011;65834;52.364;9.754;2023-07-31T01:02:10;8.05;;;2.10;;
76863;SDS011;65834;52.364;9.754;2023-07-31T01:04:41;6.60;;;2.08;;
76863;SDS011;65834;52.364;9.754;2023-07-31T01:07:13;7.70;;;2.10;;
76863;SDS011;65834;52.364;9.754;2023-07-31T01:09:59;7.57;;;2.20;;
76863;SDS011;65834;52.364;9.754;2023-07-31T01:12:37;6.65;;;1.98;;
76863;SDS011;65834;52.364;9.754;2023-07-31T01:15:10;8.75;;;2.58;;
76863;SDS011;65834;52.364;9.754;2023-07-31T01:17:42;4.70;;;1.88;;
76863;SDS011;65834;52.364;9.754;2023-07-31T01:20:12;6.05;;;1.83;;
76863;SDS011;65834;52.364;9.754;2023-07-31T01:23:08;5.90;;;1.73;;
76863;SDS011;65834;52.364;9.754;2023-07-31T01:26:03;6.18;;;1.58;;
76863;SDS011;65834;52.364;9.754;2023-07-31T01:28:43;5.15;;;1.98;;
76863;SDS011;65834;52.364;9.754;2023-07-31T01:31:21;5.25;;;1.90;;
76863;SDS011;65834;52.364;9.754;2023-07-31T01:33:54;4.90;;;1.70;;
76863;SDS011;65834;52.364;9.754;2023-07-31T01:38:57;5.75;;;1.75;;
76863;SDS011;65834;52.364;9.754;2023-07-31T01:41:30;5.40;;;1.42;;
76863;SDS011;65834;52.364;9.754;2023-07-31T01:44:00;3.72;;;1.50;;
76863;SDS011;65834;52.364;9.754;2023-07-31T01:46:30;3.42;;;1.30;;
76863;SDS011;65834;52.364;9.754;2023-07-31T01:48:59;2.75;;;1.42;;
76863;SDS011;65834;52.364;9.754;2023-07-31T01:51:29;3.65;;;1.52;;
76863;SDS011;65834;52.364;9.754;2023-07-31T01:54:00;3.70;;;1.30;;
76863;SDS011;65834;52.364;9.754;2023-07-31T01:56:33;7.53;;;1.80;;
76863;SDS011;65834;52.364;9.754;2023-07-31T01:59:03;3.33;;;1.23;;
76863;SDS011;65834;52.364;9.754;2023-07-31T02:01:33;3.58;;;1.30;;
76863;SDS011;65834;52.364;9.754;2023-07-31T02:04:03;2.53;;;1.30;;
76863;SDS011;65834;52.364;9.754;2023-07-31T02:06:33;2.38;;;1.25;;
76863;SDS011;65834;52.364;9.754;2023-07-31T02:09:03;3.47;;;1.20;;
76863;SDS011;65834;52.364;9.754;2023-07-31T02:11:35;3.08;;;1.30;;
76863;SDS011;65834;52.364;9.754;2023-07-31T02:16:53;3.45;;;1.27;;
76863;SDS011;65834;52.364;9.754;2023-07-31T02:19:24;2.28;;;1.10;;
76863;SDS011;65834;52.364;9.754;2023-07-31T02:21:54;3.80;;;1.20;;
76863;SDS011;65834;52.364;9.754;2023-07-31T02:24:23;3.50;;;1.23;;
76863;SDS011;65834;52.364;9.754;2023-07-31T02:26:56;5.30;;;1.40;;
76863;SDS011;65834;52.364;9.754;2023-07-31T02:29:27;3.10;;;1.20;;
76863;SDS011;65834;52.364;9.754;2023-07-31T02:31:57;2.22;;;1.27;;
76863;SDS011;65834;52.364;9.754;2023-07-31T02:34:26;2.83;;;1.02;;
76863;SDS011;65834;52.364;9.754;2023-07-31T02:36:56;1.73;;;1.13;;
76863;SDS011;65834;52.364;9.754;2023-07-31T02:39:26;2.58;;;1.00;;
76863;SDS011;65834;52.364;9.754;2023-07-31T02:41:59;3.67;;;0.95;;
76863;SDS011;65834;52.364;9.754;2023-07-31T02:44:29;2.72;;;1.00;;
76863;SDS011;65834;52.364;9.754;2023-07-31T02:46:58;2.05;;;1.05;;
76863;SDS011;65834;52.364;9.754;2023-07-31T02:49:29;1.30;;;0.98;;
76863;SDS011;65834;52.364;9.754;2023-07-31T02:51:59;4.13;;;1.20;;
76863;SDS011;65834;52.364;9.754;2023-07-31T02:54:28;1.77;;;1.05;;
76863;SDS011;65834;52.364;9.754;2023-07-31T02:57:00;2.47;;;0.93;;
76863;SDS011;65834;52.364;9.754;2023-07-31T02:59:30;3.50;;;1.67;;
76863;SDS011;65834;52.364;9.754;2023-07-31T03:02:00;2.08;;;1.00;;
76863;SDS011;65834;52.364;9.754;2023-07-31T03:04:29;2.75;;;1.35;;
76863;SDS011;65834;52.364;9.754;2023-07-31T03:06:59;4.10;;;1.33;;
76863;SDS011;65834;52.364;9.754;2023-07-31T03:09:29;3.97;;;1.50;;
76863;SDS011;65834;52.364;9.754;2023-07-31T03:12:01;3.97;;;1.50;;
76863;SDS011;65834;52.364;9.754;2023-07-31T03:14:30;4.55;;;1.70;;
76863;SDS011;65834;52.364;9.754;2023-07-31T03:17:00;4.28;;;1.67;;
76863;SDS011;65834;52.364;9.754;2023-07-31T03:19:30;3.05;;;1.50;;
76863;SDS011;65834;52.364;9.754;2023-07-31T03:22:00;4.63;;;1.50;;
76863;SDS011;65834;52.364;9.754;2023-07-31T03:24:29;4.70;;;1.55;;
76863;SDS011;65834;52.364;9.754;2023-07-31T03:27:02;7.05;;;2.10;;
76863;SDS011;65834;52.364;9.754;2023-07-31T03:29:31;2.55;;;1.10;;
76863;SDS011;65834;52.364;9.754;2023-07-31T03:32:01;4.25;;;1.30;;
76863;SDS011;65834;52.364;9.754;2023-07-31T03:34:31;1.95;;;1.15;;
76863;SDS011;65834;52.364;9.754;2023-07-31T03:37:01;2.67;;;1.10;;
76863;SDS011;65834;52.364;9.754;2023-07-31T03:39:32;2.65;;;1.13;;
76863;SDS011;65834;52.364;9.754;2023-07-31T03:42:04;2.53;;;1.10;;
76863;SDS011;65834;52.364;9.754;2023-07-31T03:44:35;2.83;;;1.30;;
76863;SDS011;65834;52.364;9.754;2023-07-31T03:47:04;2.42;;;1.10;;
76863;SDS011;65834;52.364;9.754;2023-07-31T03:49:36;3.72;;;1.67;;
76863;SDS011;65834;52.364;9.754;2023-07-31T03:52:06;3.22;;;1.90;;
76863;SDS011;65834;52.364;9.754;2023-07-31T03:54:36;2.55;;;1.50;;
76863;SDS011;65834;52.364;9.754;2023-07-31T03:57:08;5.68;;;1.20;;
76863;SDS011;65834;52.364;9.754;2023-07-31T03:59:38;1.73;;;1.15;;
76863;SDS011;65834;52.364;9.754;2023-07-31T04:02:07;2.20;;;0.80;;
76863;SDS011;65834;52.364;9.754;2023-07-31T04:04:37;1.83;;;1.08;;
76863;SDS011;65834;52.364;9.754;2023-07-31T04:07:06;1.38;;;1.10;;
76863;SDS011;65834;52.364;9.754;2023-07-31T04:09:36;3.67;;;1.48;;
76863;SDS011;65834;52.364;9.754;2023-07-31T04:12:08;3.05;;;1.10;;
76863;SDS011;65834;52.364;9.754;2023-07-31T04:14:38;4.05;;;1.40;;
76863;SDS011;65834;52.364;9.754;2023-07-31T04:17:07;3.63;;;1.30;;
76863;SDS011;65834;52.364;9.754;2023-07-31T04:19:38;2.38;;;1.30;;
76863;SDS011;65834;52.364;9.754;2023-07-31T04:22:07;2.72;;;1.30;;
76863;SDS011;65834;52.364;9.754;2023-07-31T04:24:37;2.60;;;1.20;;
76863;SDS011;65834;52.364;9.754;2023-07-31T04:27:09;2.47;;;1.05;;
76863;SDS011;65834;52.364;9.754;2023-07-31T04:29:39;3.05;;;1.20;;
76863;SDS011;65834;52.364;9.754;2023-07-31T04:32:10;4.00;;;1.38;;
76863;SDS011;65834;52.364;9.754;2023-07-31T04:34:42;4.07;;;1.50;;
76863;SDS011;65834;52.364;9.754;2023-07-31T04:37:11;2.65;;;1.10;;
76863;SDS011;65834;52.364;9.754;2023-07-31T04:39:41;2.15;;;1.00;;
76863;SDS011;65834;52.364;9.754;2023-07-31T04:42:13;1.90;;;1.23;;
76863;SDS011;65834;52.364;9.754;2023-07-31T04:44:43;1.60;;;0.95;;
76863;SDS011;65834;52.364;9.754;2023-07-31T04:47:12;3.17;;;1.50;;
76863;SDS011;65834;52.364;9.754;2023-07-31T04:49:42;3.72;;;1.20;;
76863;SDS011;65834;52.364;9.754;2023-07-31T04:52:11;1.95;;;1.20;;
76863;SDS011;65834;52.364;9.754;2023-07-31T04:54:41;3.60;;;1.20;;
76863;SDS011;65834;52.364;9.754;2023-07-31T04:57:13;3.53;;;1.20;;
76863;SDS011;65834;52.364;9.754;2023-07-31T04:59:43;2.10;;;1.00;;
76863;SDS011;65834;52.364;9.754;2023-07-31T05:02:15;2.42;;;1.10;;
76863;SDS011;65834;52.364;9.754;2023-07-31T05:04:45;1.83;;;1.00;;
76863;SDS011;65834;52.364;9.754;2023-07-31T05:07:14;3.28;;;1.05;;
76863;SDS011;65834;52.364;9.754;2023-07-31T05:09:44;2.22;;;0.88;;
76863;SDS011;65834;52.364;9.754;2023-07-31T05:12:16;2.53;;;0.88;;
76863;SDS011;65834;52.364;9.754;2023-07-31T05:14:46;1.80;;;0.60;;
76863;SDS011;65834;52.364;9.754;2023-07-31T05:17:15;1.75;;;0.80;;
76863;SDS011;65834;52.364;9.754;2023-07-31T05:19:45;1.55;;;0.80;;
76863;SDS011;65834;52.364;9.754;2023-07-31T05:22:14;2.72;;;0.70;;
76863;SDS011;65834;52.364;9.754;2023-07-31T05:24:44;2.13;;;0.82;;
76863;SDS011;65834;52.364;9.754;2023-07-31T05:27:16;1.23;;;0.80;;
76863;SDS011;65834;52.364;9.754;2023-07-31T05:32:16;2.83;;;1.10;;
76863;SDS011;65834;52.364;9.754;2023-07-31T05:34:46;2.88;;;1.20;;
76863;SDS011;65834;52.364;9.754;2023-07-31T05:37:15;1.98;;;1.10;;
76863;SDS011;65834;52.364;9.754;2023-07-31T05:39:45;3.30;;;1.40;;
76863;SDS011;65834;52.364;9.754;2023-07-31T05:42:17;2.97;;;1.40;;
76863;SDS011;65834;52.364;9.754;2023-07-31T05:44:47;3.72;;;1.77;;
76863;SDS011;65834;52.364;9.754;2023-07-31T05:47:17;5.43;;;1.90;;
76863;SDS011;65834;52.364;9.754;2023-07-31T05:49:46;6.55;;;2.33;;
76863;SDS011;65834;52.364;9.754;2023-07-31T05:52:16;9.15;;;2.53;;
76863;SDS011;65834;52.364;9.754;2023-07-31T05:54:45;8.35;;;3.00;;
76863;SDS011;65834;52.364;9.754;2023-07-31T05:57:17;8.13;;;2.80;;
76863;SDS011;65834;52.364;9.754;2023-07-31T05:59:47;8.30;;;3.35;;
76863;SDS011;65834;52.364;9.754;2023-07-31T06:02:17;8.05;;;3.20;;
76863;SDS011;65834;52.364;9.754;2023-07-31T06:04:46;9.52;;;3.35;;
76863;SDS011;65834;52.364;9.754;2023-07-31T06:07:16;9.88;;;3.45;;
76863;SDS011;65834;52.364;9.754;2023-07-31T06:09:46;9.27;;;3.50;;
76863;SDS011;65834;52.364;9.754;2023-07-31T06:12:18;9.88;;;3.83;;
76863;SDS011;65834;52.364;9.754;2023-07-31T06:14:48;11.55;;;4.28;;
76863;SDS011;65834;52.364;9.754;2023-07-31T06:17:17;11.82;;;4.75;;
76863;SDS011;65834;52.364;9.754;2023-07-31T06:19:48;11.05;;;4.53;;
76863;SDS011;65834;52.364;9.754;2023-07-31T06:22:18;11.07;;;4.53;;
76863;SDS011;65834;52.364;9.754;2023-07-31T06:24:48;14.18;;;5.18;;
76863;SDS011;65834;52.364;9.754;2023-07-31T06:27:20;12.10;;;5.45;;
76863;SDS011;65834;52.364;9.754;2023-07-31T06:29:49;12.98;;;5.22;;
76863;SDS011;65834;52.364;9.754;2023-07-31T06:32:19;12.68;;;5.10;;
76863;SDS011;65834;52.364;9.754;2023-07-31T06:34:49;13.20;;;5.20;;
76863;SDS011;65834;52.364;9.754;2023-07-31T06:37:20;12.23;;;4.60;;
76863;SDS011;65834;52.364;9.754;2023-07-31T06:39:50;11.43;;;4.80;;
76863;SDS011;65834;52.364;9.754;2023-07-31T06:42:22;12.40;;;4.80;;
76863;SDS011;65834;52.364;9.754;2023-07-31T06:44:51;11.38;;;4.07;;
76863;SDS011;65834;52.364;9.754;2023-07-31T06:47:21;13.32;;;5.03;;
76863;SDS011;65834;52.364;9.754;2023-07-31T06:49:51;10.93;;;4.50;;
76863;SDS011;65834;52.364;9.754;2023-07-31T06:52:20;10.70;;;4.72;;
76863;SDS011;65834;52.364;9.754;2023-07-31T06:55:00;11.88;;;4.80;;
76863;SDS011;65834;52.364;9.754;2023-07-31T06:57:33;12.93;;;4.82;;
76863;SDS011;65834;52.364;9.754;2023-07-31T07:00:03;12.35;;;4.55;;
76863;SDS011;65834;52.364;9.754;2023-07-31T07:02:34;12.20;;;4.72;;
76863;SDS011;65834;52.364;9.754;2023-07-31T07:05:04;12.45;;;5.45;;
76863;SDS011;65834;52.364;9.754;2023-07-31T07:07:33;11.82;;;5.18;;
76863;SDS011;65834;52.364;9.754;2023-07-31T07:10:04;14.18;;;5.88;;
76863;SDS011;65834;52.364;9.754;2023-07-31T07:12:37;13.65;;;6.15;;
76863;SDS011;65834;52.364;9.754;2023-07-31T07:15:07;13.98;;;5.90;;
76863;SDS011;65834;52.364;9.754;2023-07-31T07:17:37;13.65;;;6.60;;
76863;SDS011;65834;52.364;9.754;2023-07-31T07:20:08;15.05;;;6.53;;
76863;SDS011;65834;52.364;9.754;2023-07-31T07:22:38;14.27;;;6.25;;
76863;SDS011;65834;52.364;9.754;2023-07-31T07:25:09;16.58;;;7.45;;
76863;SDS011;65834;52.364;9.754;2023-07-31T07:27:41;17.00;;;7.38;;
76863;SDS011;65834;52.364;9.754;2023-07-31T07:30:11;15.05;;;7.47;;
76863;SDS011;65834;52.364;9.754;2023-07-31T07:32:40;15.32;;;7.43;;
76863;SDS011;65834;52.364;9.754;2023-07-31T07:35:10;17.70;;;8.95;;
76863;SDS011;65834;52.364;9.754;2023-07-31T07:37:40;15.65;;;7.40;;
76863;SDS011;65834;52.364;9.754;2023-07-31T07:40:10;17.00;;;7.45;;
76863;SDS011;65834;52.364;9.754;2023-07-31T07:42:42;15.75;;;8.48;;
76863;SDS011;65834;52.364;9.754;2023-07-31T07:45:12;17.35;;;8.30;;
76863;SDS011;65834;52.364;9.754;2023-07-31T07:47:42;17.73;;;7.43;;
76863;SDS011;65834;52.364;9.754;2023-07-31T07:50:12;16.27;;;7.20;;
76863;SDS011;65834;52.364;9.754;2023-07-31T07:52:41;14.90;;;7.38;;
76863;SDS011;65834;52.364;9.754;2023-07-31T07:55:11;17.38;;;7.20;;
76863;SDS011;65834;52.364;9.754;2023-07-31T07:57:43;15.95;;;7.50;;
76863;SDS011;65834;52.364;9.754;2023-07-31T08:00:13;16.17;;;7.05;;
76863;SDS011;65834;52.364;9.754;2023-07-31T08:02:43;14.93;;;7.47;;
76863;SDS011;65834;52.364;9.754;2023-07-31T08:05:14;13.43;;;6.85;;
76863;SDS011;65834;52.364;9.754;2023-07-31T08:07:44;15.35;;;6.70;;
76863;SDS011;65834;52.364;9.754;2023-07-31T08:10:13;17.17;;;6.72;;
76863;SDS011;65834;52.364;9.754;2023-07-31T08:12:45;14.52;;;6.60;;
76863;SDS011;65834;52.364;9.754;2023-07-31T08:15:15;13.23;;;5.88;;
76863;SDS011;65834;52.364;9.754;2023-07-31T08:17:45;16.65;;;6.15;;
76863;SDS011;65834;52.364;9.754;2023-07-31T08:20:14;13.65;;;5.50;;
76863;SDS011;65834;52.364;9.754;2023-07-31T08:22:44;16.23;;;5.22;;
76863;SDS011;65834;52.364;9.754;2023-07-31T08:25:14;14.57;;;5.35;;
76863;SDS011;65834;52.364;9.754;2023-07-31T08:27:46;14.40;;;5.43;;
76863;SDS011;65834;52.364;9.754;2023-07-31T08:30:15;13.30;;;5.20;;
76863;SDS011;65834;52.364;9.754;2023-07-31T08:32:47;11.25;;;4.97;;
76863;SDS011;65834;52.364;9.754;2023-07-31T08:35:18;14.77;;;5.43;;
76863;SDS011;65834;52.364;9.754;2023-07-31T08:37:47;13.50;;;5.10;;
76863;SDS011;65834;52.364;9.754;2023-07-31T08:40:17;12.00;;;5.13;;
76863;SDS011;65834;52.364;9.754;2023-07-31T08:42:53;14.48;;;4.72;;
76863;SDS011;65834;52.364;9.754;2023-07-31T08:45:28;13.63;;;5.38;;
76863;SDS011;65834;52.364;9.754;2023-07-31T08:47:59;11.95;;;5.10;;
76863;SDS011;65834;52.364;9.754;2023-07-31T08:50:29;15.02;;;4.93;;
76863;SDS011;65834;52.364;9.754;2023-07-31T08:53:00;12.07;;;5.00;;
76863;SDS011;65834;52.364;9.754;2023-07-31T08:55:30;11.55;;;4.35;;
76863;SDS011;65834;52.364;9.754;2023-07-31T08:58:03;11.02;;;4.43;;
76863;SDS011;65834;52.364;9.754;2023-07-31T09:00:34;12.32;;;4.72;;
76863;SDS011;65834;52.364;9.754;2023-07-31T09:03:07;12.93;;;4.65;;
76863;SDS011;65834;52.364;9.754;2023-07-31T09:05:38;12.65;;;5.07;;
76863;SDS011;65834;52.364;9.754;2023-07-31T09:08:12;13.43;;;4.68;;
76863;SDS011;65834;52.364;9.754;2023-07-31T09:10:43;13.00;;;4.75;;
76863;SDS011;65834;52.364;9.754;2023-07-31T09:13:19;12.93;;;4.90;;
76863;SDS011;65834;52.364;9.754;2023-07-31T09:15:48;11.60;;;4.70;;
76863;SDS011;65834;52.364;9.754;2023-07-31T09:18:18;13.18;;;5.10;;
76863;SDS011;65834;52.364;9.754;2023-07-31T09:20:59;13.48;;;4.90;;
76863;SDS011;65834;52.364;9.754;2023-07-31T09:23:40;13.15;;;4.30;;
76863;SDS011;65834;52.364;9.754;2023-07-31T09:26:10;11.85;;;4.60;;
76863;SDS011;65834;52.364;9.754;2023-07-31T09:28:43;15.25;;;5.28;;
76863;SDS011;65834;52.364;9.754;2023-07-31T09:31:12;11.10;;;4.35;;
76863;SDS011;65834;52.364;9.754;2023-07-31T09:33:53;11.40;;;4.15;;
76863;SDS011;65834;52.364;9.754;2023-07-31T09:36:25;11.70;;;4.30;;
76863;SDS011;65834;52.364;9.754;2023-07-31T09:39:01;12.45;;;4.13;;
76863;SDS011;65834;52.364;9.754;2023-07-31T09:41:32;9.98;;;3.55;;
76863;SDS011;65834;52.364;9.754;2023-07-31T09:44:08;8.15;;;3.00;;
76863;SDS011;65834;52.364;9.754;2023-07-31T09:46:38;8.93;;;2.65;;
76863;SDS011;65834;52.364;9.754;2023-07-31T09:49:10;8.10;;;3.35;;
76863;SDS011;65834;52.364;9.754;2023-07-31T09:51:42;7.13;;;2.40;;
76863;SDS011;65834;52.364;9.754;2023-07-31T09:54:11;7.70;;;2.78;;
76863;SDS011;65834;52.364;9.754;2023-07-31T09:56:42;6.47;;;2.22;;
76863;SDS011;65834;52.364;9.754;2023-07-31T09:59:16;8.25;;;3.35;;
76863;SDS011;65834;52.364;9.754;2023-07-31T10:01:49;7.28;;;2.30;;
76863;SDS011;65834;52.364;9.754;2023-07-31T10:04:21;7.85;;;2.60;;
76863;SDS011;65834;52.364;9.754;2023-07-31T10:06:56;8.63;;;2.45;;
76863;SDS011;65834;52.364;9.754;2023-07-31T10:09:29;8.23;;;2.50;;
76863;SDS011;65834;52.364;9.754;2023-07-31T10:12:01;6.38;;;2.20;;
76863;SDS011;65834;52.364;9.754;2023-07-31T10:14:39;6.43;;;2.00;;
76863;SDS011;65834;52.364;9.754;2023-07-31T10:17:10;5.88;;;1.98;;
76863;SDS011;65834;52.364;9.754;2023-07-31T10:19:41;6.25;;;1.92;;
76863;SDS011;65834;52.364;9.754;2023-07-31T10:22:11;5.05;;;2.13;;
76863;SDS011;65834;52.364;9.754;2023-07-31T10:24:41;5.38;;;2.00;;
76863;SDS011;65834;52.364;9.754;2023-07-31T10:27:12;6.03;;;1.98;;
76863;SDS011;65834;52.364;9.754;2023-07-31T10:29:44;7.00;;;2.33;;
76863;SDS011;65834;52.364;9.754;2023-07-31T10:32:16;5.75;;;2.03;;
76863;SDS011;65834;52.364;9.754;2023-07-31T10:34:46;4.88;;;2.22;;
76863;SDS011;65834;52.364;9.754;2023-07-31T10:37:21;6.85;;;2.20;;
76863;SDS011;65834;52.364;9.754;2023-07-31T10:39:59;3.63;;;1.80;;
76863;SDS011;65834;52.364;9.754;2023-07-31T10:42:31;7.18;;;1.90;;
76863;SDS011;65834;52.364;9.754;2023-07-31T10:45:05;4.83;;;2.00;;
76863;SDS011;65834;52.364;9.754;2023-07-31T10:47:37;4.70;;;2.20;;
76863;SDS011;65834;52.364;9.754;2023-07-31T10:50:11;7.22;;;2.50;;
76863;SDS011;65834;52.364;9.754;2023-07-31T10:52:44;6.70;;;2.20;;
76863;SDS011;65834;52.364;9.754;2023-07-31T10:55:15;6.72;;;2.17;;
76863;SDS011;65834;52.364;9.754;2023-07-31T10:57:53;6.57;;;2.20;;
76863;SDS011;65834;52.364;9.754;2023-07-31T11:00:28;6.97;;;2.38;;
76863;SDS011;65834;52.364;9.754;2023-07-31T11:02:59;7.20;;;2.10;;
76863;SDS011;65834;52.364;9.754;2023-07-31T11:08:17;4.78;;;2.30;;
76863;SDS011;65834;52.364;9.754;2023-07-31T11:10:49;6.20;;;2.20;;
76863;SDS011;65834;52.364;9.754;2023-07-31T11:15:53;4.70;;;1.83;;
76863;SDS011;65834;52.364;9.754;2023-07-31T11:18:22;9.75;;;2.50;;
76863;SDS011;65834;52.364;9.754;2023-07-31T11:20:52;5.85;;;2.22;;
76863;SDS011;65834;52.364;9.754;2023-07-31T11:23:22;7.32;;;2.20;;
76863;SDS011;65834;52.364;9.754;2023-07-31T11:25:52;5.57;;;1.90;;
76863;SDS011;65834;52.364;9.754;2023-07-31T11:28:31;4.32;;;1.85;;
76863;SDS011;65834;52.364;9.754;2023-07-31T11:31:05;5.10;;;1.88;;
76863;SDS011;65834;52.364;9.754;2023-07-31T11:33:38;7.13;;;2.22;;
76863;SDS011;65834;52.364;9.754;2023-07-31T11:36:13;5.25;;;2.10;;
76863;SDS011;65834;52.364;9.754;2023-07-31T11:38:43;8.63;;;2.20;;
76863;SDS011;65834;52.364;9.754;2023-07-31T11:41:15;5.53;;;2.10;;
76863;SDS011;65834;52.364;9.754;2023-07-31T11:43:45;6.35;;;2.10;;
76863;SDS011;65834;52.364;9.754;2023-07-31T11:46:18;6.32;;;2.30;;
76863;SDS011;65834;52.364;9.754;2023-07-31T11:48:47;7.03;;;2.20;;
76863;SDS011;65834;52.364;9.754;2023-07-31T11:51:17;8.77;;;2.50;;
76863;SDS011;65834;52.364;9.754;2023-07-31T11:53:50;6.47;;;2.08;;
76863;SDS011;65834;52.364;9.754;2023-07-31T11:58:53;5.88;;;2.10;;
76863;SDS011;65834;52.364;9.754;2023-07-31T12:01:29;5.50;;;2.15;;
76863;SDS011;65834;52.364;9.754;2023-07-31T12:03:59;7.53;;;2.30;;
76863;SDS011;65834;52.364;9.754;2023-07-31T12:06:32;9.88;;;2.70;;
76863;SDS011;65834;52.364;9.754;2023-07-31T12:09:03;5.72;;;2.22;;
76863;SDS011;65834;52.364;9.754;2023-07-31T12:11:42;6.57;;;1.77;;
76863;SDS011;65834;52.364;9.754;2023-07-31T12:14:19;4.70;;;1.95;;
76863;SDS011;65834;52.364;9.754;2023-07-31T12:16:55;7.32;;;2.15;;
76863;SDS011;65834;52.364;9.754;2023-07-31T12:19:26;4.88;;;1.98;;
76863;SDS011;65834;52.364;9.754;2023-07-31T12:21:58;4.88;;;1.80;;
76863;SDS011;65834;52.364;9.754;2023-07-31T12:24:28;7.03;;;2.30;;
76863;SDS011;65834;52.364;9.754;2023-07-31T12:26:58;5.15;;;1.75;;
76863;SDS011;65834;52.364;9.754;2023-07-31T12:29:33;4.60;;;1.80;;
76863;SDS011;65834;52.364;9.754;2023-07-31T12:32:22;3.85;;;1.80;;
76863;SDS011;65834;52.364;9.754;2023-07-31T12:34:56;6.13;;;1.80;;
76863;SDS011;65834;52.364;9.754;2023-07-31T12:37:29;9.93;;;2.15;;
76863;SDS011;65834;52.364;9.754;2023-07-31T12:39:58;5.38;;;1.70;;
76863;SDS011;65834;52.364;9.754;2023-07-31T12:42:34;4.43;;;1.60;;
76863;SDS011;65834;52.364;9.754;2023-07-31T12:45:04;3.05;;;1.38;;
76863;SDS011;65834;52.364;9.754;2023-07-31T12:47:37;3.45;;;1.60;;
76863;SDS011;65834;52.364;9.754;2023-07-31T12:50:07;5.13;;;1.65;;
76863;SDS011;65834;52.364;9.754;2023-07-31T12:52:37;1.92;;;1.15;;
76863;SDS011;65834;52.364;9.754;2023-07-31T12:55:07;2.75;;;1.27;;
76863;SDS011;65834;52.364;9.754;2023-07-31T12:57:37;2.55;;;1.10;;
76863;SDS011;65834;52.364;9.754;2023-07-31T13:00:08;2.15;;;1.10;;
76863;SDS011;65834;52.364;9.754;2023-07-31T13:02:42;2.00;;;0.82;;
76863;SDS011;65834;52.364;9.754;2023-07-31T13:05:11;1.90;;;0.90;;
76863;SDS011;65834;52.364;9.754;2023-07-31T13:07:42;2.97;;;1.02;;
76863;SDS011;65834;52.364;9.754;2023-07-31T13:10:11;1.65;;;0.88;;
76863;SDS011;65834;52.364;9.754;2023-07-31T13:12:41;1.13;;;0.90;;
76863;SDS011;65834;52.364;9.754;2023-07-31T13:15:11;2.75;;;1.17;;
76863;SDS011;65834;52.364;9.754;2023-07-31T13:17:44;1.90;;;1.10;;
76863;SDS011;65834;52.364;9.754;2023-07-31T13:20:14;2.80;;;0.88;;
76863;SDS011;65834;52.364;9.754;2023-07-31T13:22:44;2.22;;;1.05;;
76863;SDS011;65834;52.364;9.754;2023-07-31T13:25:14;2.28;;;0.95;;
76863;SDS011;65834;52.364;9.754;2023-07-31T13:27:43;2.25;;;1.20;;
76863;SDS011;65834;52.364;9.754;2023-07-31T13:30:13;1.50;;;0.90;;
76863;SDS011;65834;52.364;9.754;2023-07-31T13:32:45;1.48;;;1.00;;
76863;SDS011;65834;52.364;9.754;2023-07-31T13:35:15;2.30;;;1.55;;
76863;SDS011;65834;52.364;9.754;2023-07-31T13:37:45;3.63;;;1.48;;
76863;SDS011;65834;52.364;9.754;2023-07-31T13:40:14;2.35;;;1.10;;
76863;SDS011;65834;52.364;9.754;2023-07-31T13:42:44;2.90;;;1.20;;
76863;SDS011;65834;52.364;9.754;2023-07-31T13:45:14;3.15;;;1.38;;
76863;SDS011;65834;52.364;9.754;2023-07-31T13:47:47;2.47;;;1.10;;
76863;SDS011;65834;52.364;9.754;2023-07-31T13:50:17;3.42;;;1.10;;
76863;SDS011;65834;52.364;9.754;2023-07-31T13:52:48;1.63;;;0.95;;
76863;SDS011;65834;52.364;9.754;2023-07-31T13:55:17;3.83;;;1.13;;
76863;SDS011;65834;52.364;9.754;2023-07-31T13:57:47;2.50;;;1.05;;
76863;SDS011;65834;52.364;9.754;2023-07-31T14:00:17;3.65;;;1.10;;
76863;SDS011;65834;52.364;9.754;2023-07-31T14:02:49;2.78;;;0.90;;
76863;SDS011;65834;52.364;9.754;2023-07-31T14:05:19;1.52;;;0.90;;
76863;SDS011;65834;52.364;9.754;2023-07-31T14:07:50;3.08;;;1.20;;
76863;SDS011;65834;52.364;9.754;2023-07-31T14:10:20;2.20;;;0.90;;
76863;SDS011;65834;52.364;9.754;2023-07-31T14:12:50;1.83;;;1.10;;
76863;SDS011;65834;52.364;9.754;2023-07-31T14:15:19;2.00;;;0.80;;
76863;SDS011;65834;52.364;9.754;2023-07-31T14:17:52;2.45;;;0.90;;
76863;SDS011;65834;52.364;9.754;2023-07-31T14:20:27;2.33;;;0.95;;
76863;SDS011;65834;52.364;9.754;2023-07-31T14:22:57;1.98;;;1.10;;
76863;SDS011;65834;52.364;9.754;2023-07-31T14:25:27;1.73;;;0.88;;
76863;SDS011;65834;52.364;9.754;2023-07-31T14:27:58;1.55;;;0.90;;
76863;SDS011;65834;52.364;9.754;2023-07-31T14:30:28;2.40;;;1.15;;
76863;SDS011;65834;52.364;9.754;2023-07-31T14:33:01;2.42;;;1.00;;
76863;SDS011;65834;52.364;9.754;2023-07-31T14:35:31;3.72;;;1.25;;
76863;SDS011;65834;52.364;9.754;2023-07-31T14:38:01;1.33;;;1.08;;
76863;SDS011;65834;52.364;9.754;2023-07-31T14:40:31;3.28;;;1.23;;
76863;SDS011;65834;52.364;9.754;2023-07-31T14:43:01;3.20;;;1.30;;
76863;SDS011;65834;52.364;9.754;2023-07-31T14:45:30;2.20;;;1.48;;
76863;SDS011;65834;52.364;9.754;2023-07-31T14:48:03;4.15;;;1.80;;
76863;SDS011;65834;52.364;9.754;2023-07-31T14:50:33;4.65;;;1.85;;
76863;SDS011;65834;52.364;9.754;2023-07-31T14:53:03;5.03;;;1.90;;
76863;SDS011;65834;52.364;9.754;2023-07-31T14:55:32;5.60;;;1.92;;
76863;SDS011;65834;52.364;9.754;2023-07-31T14:58:02;4.15;;;1.90;;
76863;SDS011;65834;52.364;9.754;2023-07-31T15:00:31;4.95;;;1.80;;
76863;SDS011;65834;52.364;9.754;2023-07-31T15:03:04;6.28;;;2.50;;
76863;SDS011;65834;52.364;9.754;2023-07-31T15:08:03;6.18;;;2.30;;
76863;SDS011;65834;52.364;9.754;2023-07-31T15:10:33;7.97;;;2.30;;
76863;SDS011;65834;52.364;9.754;2023-07-31T15:13:02;6.20;;;2.17;;
76863;SDS011;65834;52.364;9.754;2023-07-31T15:15:32;5.78;;;2.38;;
76863;SDS011;65834;52.364;9.754;2023-07-31T15:18:04;7.38;;;2.33;;
76863;SDS011;65834;52.364;9.754;2023-07-31T15:20:34;5.68;;;2.05;;
76863;SDS011;65834;52.364;9.754;2023-07-31T15:23:03;4.18;;;2.08;;
76863;SDS011;65834;52.364;9.754;2023-07-31T15:25:33;6.65;;;2.40;;
76863;SDS011;65834;52.364;9.754;2023-07-31T15:28:03;5.75;;;2.28;;